createdAt,value
2018-12-07T06:21:28.603Z,3.70
2018-12-07T06:22:39.764Z,3.10
2018-12-07T06:23:39.853Z,2.50
2018-12-07T06:24:29.612Z,11.00
2018-12-07T06:25:29.121Z,9.10
2018-12-07T06:26:28.173Z,2.30
2018-12-07T06:27:28.198Z,4.90
2018-12-07T06:28:28.280Z,8.80
2018-12-07T06:29:28.105Z,5.20
2018-12-07T06:30:28.587Z,3.10
2018-12-07T06:31:28.092Z,16.70
2018-12-07T06:32:28.044Z,18.00
2018-12-07T06:33:28.594Z,4.40
2018-12-07T06:34:28.026Z,8.90
2018-12-07T06:35:28.046Z,13.20
2018-12-07T06:36:28.008Z,5.00
2018-12-07T06:37:27.993Z,11.40
2018-12-07T06:38:27.978Z,8.40
2018-12-07T06:39:27.970Z,6.20
2018-12-07T06:40:27.979Z,2.00
2018-12-07T06:41:28.970Z,1.60
2018-12-07T06:42:27.928Z,2.00
2018-12-07T06:43:27.926Z,1.90
2018-12-07T06:44:27.907Z,1.80
2018-12-07T06:45:27.896Z,1.80
2018-12-07T06:46:29.630Z,1.70
2018-12-07T06:47:29.089Z,1.40
2018-12-07T06:48:27.867Z,1.50
2018-12-07T06:49:27.860Z,1.20
2018-12-07T06:50:27.843Z,1.60
2018-12-07T06:51:27.828Z,1.30
2018-12-07T06:52:27.831Z,1.40
2018-12-07T06:53:27.837Z,1.30
2018-12-07T06:54:27.799Z,1.30
2018-12-07T06:55:27.783Z,1.20
2018-12-07T06:56:27.782Z,1.30
2018-12-07T06:57:27.872Z,1.40
2018-12-07T06:58:27.753Z,1.20
2018-12-07T06:59:27.780Z,1.20
2018-12-07T07:00:27.728Z,1.30
2018-12-07T07:01:27.722Z,1.10
2018-12-07T07:02:27.729Z,1.20
2018-12-07T07:03:27.704Z,1.10
2018-12-07T07:04:28.735Z,1.10
2018-12-07T07:05:29.585Z,1.30
2018-12-07T07:06:27.687Z,1.60
2018-12-07T07:07:27.647Z,1.20
2018-12-07T07:08:27.652Z,1.40
2018-12-07T07:09:27.621Z,1.20
2018-12-07T07:10:27.615Z,1.20
2018-12-07T07:11:27.602Z,1.50
2018-12-07T07:12:29.174Z,1.50
2018-12-07T07:13:27.619Z,1.50
2018-12-07T07:14:27.575Z,2.00
2018-12-07T07:15:27.561Z,1.70
2018-12-07T07:16:27.554Z,1.60
2018-12-07T07:17:27.539Z,1.90
2018-12-07T07:18:27.555Z,1.70
2018-12-07T07:19:27.533Z,1.50
2018-12-07T07:20:27.504Z,1.50
2018-12-07T07:21:28.088Z,1.50
2018-12-07T07:22:27.484Z,2.60
2018-12-07T07:23:28.090Z,1.30
2018-12-07T07:24:27.519Z,1.50
2018-12-07T07:25:27.450Z,1.90
2018-12-07T07:26:27.436Z,1.50
2018-12-07T07:27:27.423Z,1.30
2018-12-07T07:28:27.416Z,1.40
2018-12-07T07:29:27.409Z,3.00
2018-12-07T07:30:28.183Z,2.70
2018-12-07T07:31:28.373Z,1.50
2018-12-07T07:32:27.379Z,1.50
2018-12-07T07:33:27.376Z,1.40
2018-12-07T07:34:27.341Z,1.50
2018-12-07T07:35:27.327Z,1.30
2018-12-07T07:36:27.635Z,1.60
2018-12-07T07:37:27.311Z,1.60
2018-12-07T07:38:27.302Z,1.70
2018-12-07T07:39:27.282Z,1.70
2018-12-07T07:40:27.285Z,1.50
2018-12-07T07:41:30.129Z,1.30
2018-12-07T07:42:27.252Z,1.60
2018-12-07T07:43:27.249Z,1.50
2018-12-07T07:44:27.233Z,1.50
2018-12-07T07:45:27.244Z,1.30
2018-12-07T07:46:27.252Z,1.60
2018-12-07T07:47:27.221Z,1.40
2018-12-07T07:48:27.183Z,1.50
2018-12-07T07:49:27.169Z,1.70
2018-12-07T07:50:27.161Z,1.50
2018-12-07T07:51:27.157Z,1.50
2018-12-07T07:52:27.169Z,1.70
2018-12-07T07:53:27.143Z,1.60
2018-12-07T07:54:28.046Z,1.20
2018-12-07T07:55:27.119Z,1.20
2018-12-07T07:56:27.094Z,1.50
2018-12-07T07:57:27.103Z,1.70
2018-12-07T07:58:27.080Z,1.90
2018-12-07T07:59:27.060Z,1.60
2018-12-07T08:00:27.086Z,1.40
2018-12-07T08:01:27.037Z,2.30
2018-12-07T08:02:27.025Z,2.60
2018-12-07T08:03:27.589Z,3.80
2018-12-07T08:04:27.612Z,2.60
2018-12-07T08:05:27.033Z,1.60
2018-12-07T08:06:26.979Z,2.30
2018-12-07T08:07:26.970Z,1.60
2018-12-07T08:08:26.965Z,1.90
2018-12-07T08:09:26.951Z,4.40
2018-12-07T08:10:26.942Z,3.10
2018-12-07T08:11:27.616Z,2.10
2018-12-07T08:12:26.921Z,1.80
2018-12-07T08:13:26.938Z,1.70
2018-12-07T08:14:26.895Z,1.40
2018-12-07T08:15:26.889Z,1.60
2018-12-07T08:16:26.871Z,1.40
2018-12-07T08:17:26.893Z,1.70
2018-12-07T08:18:26.971Z,1.80
2018-12-07T08:19:27.117Z,1.40
2018-12-07T08:20:26.835Z,4.80
2018-12-07T08:21:26.806Z,2.50
2018-12-07T08:22:26.807Z,1.70
2018-12-07T08:23:26.799Z,1.70
2018-12-07T08:24:27.596Z,1.60
2018-12-07T08:25:26.806Z,1.30
2018-12-07T08:26:26.760Z,1.20
2018-12-07T08:27:27.808Z,1.40
2018-12-07T08:28:26.743Z,1.50
2018-12-07T08:29:26.756Z,1.50
2018-12-07T08:30:27.590Z,1.40
2018-12-07T08:31:26.715Z,1.10
2018-12-07T08:32:26.768Z,0.90
2018-12-07T08:33:26.680Z,1.20
2018-12-07T08:34:26.675Z,1.20
2018-12-07T08:35:26.734Z,1.20
2018-12-07T08:36:27.597Z,1.10
2018-12-07T08:37:37.598Z,1.30
2018-12-07T08:41:24.869Z,1.00
2018-12-07T08:42:24.720Z,1.10
2018-12-07T08:43:24.682Z,1.30
2018-12-07T08:44:39.183Z,1.50
2018-12-07T08:45:35.614Z,5.60
2018-12-07T08:46:24.676Z,10.60
2018-12-07T08:47:24.619Z,4.80
2018-12-07T08:48:24.662Z,1.80
2018-12-07T08:49:24.594Z,1.40
2018-12-07T08:50:24.581Z,1.30
2018-12-07T08:51:35.402Z,1.20
2018-12-07T08:52:24.619Z,1.20
2018-12-07T08:53:24.560Z,0.90
2018-12-07T08:54:24.539Z,1.00
2018-12-07T08:55:24.570Z,0.80
2018-12-07T08:56:36.194Z,1.10
2018-12-07T08:57:25.208Z,0.90
2018-12-07T08:58:35.248Z,1.30
2018-12-07T08:59:35.371Z,1.40
2018-12-07T09:00:36.835Z,1.30
2018-12-07T09:01:24.510Z,1.00
2018-12-07T09:02:24.459Z,1.10
2018-12-07T09:03:24.484Z,2.50
2018-12-07T09:04:41.284Z,0.90
2018-12-07T09:05:24.422Z,0.90
2018-12-07T09:06:24.405Z,1.20
2018-12-07T09:07:36.044Z,0.90
2018-12-07T09:08:34.867Z,0.80
2018-12-07T09:09:35.719Z,0.90
2018-12-07T09:11:36.545Z,0.90
2018-12-07T09:16:37.409Z,0.80
2018-12-07T09:18:51.201Z,1.30
2018-12-07T09:19:51.219Z,1.10
2018-12-07T09:20:54.169Z,1.20
2018-12-07T09:22:02.769Z,0.90
2018-12-07T09:22:51.142Z,1.10
2018-12-07T09:23:52.137Z,1.10
2018-12-07T09:25:00.711Z,0.90
2018-12-07T09:25:59.776Z,1.00
2018-12-07T09:27:01.867Z,1.10
2018-12-07T09:27:51.121Z,1.00
2018-12-07T09:29:02.235Z,1.10
2018-12-07T09:30:01.572Z,0.90
2018-12-07T09:30:59.760Z,1.10
2018-12-07T09:31:59.757Z,0.80
2018-12-07T09:34:10.453Z,0.80
2018-12-07T09:37:24.878Z,0.90
2018-12-07T09:38:34.853Z,0.90
2018-12-07T09:39:36.502Z,0.80
2018-12-07T09:40:24.813Z,1.00
2018-12-07T09:41:34.387Z,0.80
2018-12-07T09:42:35.536Z,0.80
2018-12-07T09:43:35.480Z,0.80
2018-12-07T09:45:39.443Z,0.70
2018-12-07T09:49:04.479Z,0.70
2018-12-07T09:50:02.935Z,1.00
2018-12-07T09:51:03.903Z,0.70
2018-12-07T09:52:13.363Z,1.00
2018-12-07T09:53:12.650Z,0.70
2018-12-07T09:55:14.270Z,1.10
2018-12-07T09:57:25.481Z,0.90
2018-12-07T09:58:25.279Z,0.90
2018-12-07T09:59:25.260Z,0.90
2018-12-07T10:01:37.384Z,2.00
2018-12-07T10:03:50.908Z,0.90
2018-12-07T10:05:00.546Z,0.90
2018-12-07T10:05:50.681Z,0.90
2018-12-07T10:06:51.649Z,0.90
2018-12-07T10:08:02.639Z,0.80
2018-12-07T10:09:03.612Z,0.90
2018-12-07T10:09:50.633Z,1.00
2018-12-07T10:11:00.585Z,0.90
2018-12-07T10:12:02.967Z,1.00
2018-12-07T10:12:50.601Z,0.90
2018-12-07T10:14:01.127Z,0.80
2018-12-07T10:14:50.617Z,1.00
2018-12-07T10:16:01.246Z,1.40
2018-12-07T10:16:50.545Z,1.50
2018-12-07T10:18:24.253Z,1.00
2018-12-07T10:18:50.502Z,1.20
2018-12-07T10:19:50.487Z,1.10
2018-12-07T10:20:50.591Z,1.00
2018-12-07T10:22:01.399Z,0.90
2018-12-07T10:22:50.442Z,1.30
2018-12-07T10:23:50.505Z,0.90
2018-12-07T10:24:50.544Z,1.20
2018-12-07T10:25:50.454Z,0.90
2018-12-07T10:26:50.371Z,0.90
2018-12-07T10:27:50.370Z,1.10
2018-12-07T10:28:51.181Z,1.30
2018-12-07T10:29:51.077Z,3.00
2018-12-07T10:30:50.355Z,1.30
2018-12-07T10:31:50.337Z,1.70
2018-12-07T10:32:50.304Z,1.70
2018-12-07T10:33:51.093Z,1.50
2018-12-07T10:34:50.316Z,1.20
2018-12-07T10:35:50.275Z,2.20
2018-12-07T10:36:50.278Z,1.50
2018-12-07T10:37:50.288Z,1.30
2018-12-07T10:38:50.239Z,1.60
2018-12-07T10:40:01.879Z,1.70
2018-12-07T10:40:59.726Z,1.70
2018-12-07T10:43:11.288Z,1.30
2018-12-07T10:45:59.862Z,1.90
2018-12-07T10:48:13.428Z,1.50
2018-12-07T10:49:12.939Z,1.10
2018-12-07T10:50:13.942Z,1.10
2018-12-07T10:51:12.921Z,1.50
2018-12-07T10:52:13.631Z,1.40
2018-12-07T10:53:12.969Z,1.20
2018-12-07T10:54:12.945Z,1.00
2018-12-07T10:55:12.854Z,0.90
2018-12-07T10:56:25.348Z,1.00
2018-12-07T10:58:25.332Z,0.70
2018-12-07T10:59:32.836Z,0.80
2018-12-07T11:01:36.299Z,2.20
2018-12-07T11:02:38.135Z,1.20
2018-12-07T11:03:37.002Z,1.30
2018-12-07T11:04:36.085Z,1.30
2018-12-07T11:05:36.077Z,1.60
2018-12-07T11:06:36.056Z,1.00
2018-12-07T11:07:36.074Z,1.10
2018-12-07T11:08:46.560Z,0.70
2018-12-07T11:09:44.754Z,0.80
2018-12-07T11:10:36.033Z,0.70
2018-12-07T11:11:36.052Z,0.70
2018-12-07T11:12:36.059Z,0.70
2018-12-07T11:13:36.022Z,0.90
2018-12-07T11:14:47.688Z,0.90
2018-12-07T11:15:46.749Z,0.80
2018-12-07T11:16:36.020Z,0.80
2018-12-07T11:17:35.988Z,0.80
2018-12-07T11:18:38.862Z,0.70
2018-12-07T11:19:37.661Z,1.00
2018-12-07T11:20:35.965Z,0.80
2018-12-07T11:21:35.871Z,3.30
2018-12-07T11:22:35.863Z,1.50
2018-12-07T11:23:35.881Z,1.20
2018-12-07T11:24:35.834Z,0.90
2018-12-07T11:25:35.826Z,1.10
2018-12-07T11:26:38.597Z,1.10
2018-12-07T11:27:35.801Z,0.90
2018-12-07T11:28:36.799Z,0.80
2018-12-07T11:29:35.781Z,0.80
2018-12-07T11:30:35.794Z,1.00
2018-12-07T11:31:35.773Z,1.50
2018-12-07T11:32:35.752Z,1.80
2018-12-07T11:33:35.741Z,0.90
2018-12-07T11:34:35.729Z,0.60
2018-12-07T11:35:35.778Z,0.80
2018-12-07T11:36:35.720Z,0.80
2018-12-07T11:37:35.697Z,0.80
2018-12-07T11:38:35.704Z,0.60
2018-12-07T11:39:36.675Z,1.50
2018-12-07T11:40:35.705Z,0.80
2018-12-07T11:41:35.657Z,0.80
2018-12-07T11:42:36.602Z,0.60
2018-12-07T11:43:35.633Z,0.90
2018-12-07T11:44:36.640Z,0.70
2018-12-07T11:45:35.604Z,0.90
2018-12-07T11:46:35.603Z,1.00
2018-12-07T11:47:35.634Z,0.80
2018-12-07T11:48:35.559Z,0.90
2018-12-07T11:49:35.550Z,2.20
2018-12-07T11:50:35.541Z,0.60
2018-12-07T11:51:35.558Z,0.70
2018-12-07T11:52:35.516Z,1.40
2018-12-07T11:53:35.528Z,1.30
2018-12-07T11:54:35.492Z,0.80
2018-12-07T11:55:35.511Z,0.80
2018-12-07T11:56:35.569Z,0.80
2018-12-07T11:57:35.480Z,0.80
2018-12-07T11:58:35.441Z,0.90
2018-12-07T11:59:35.474Z,1.00
2018-12-07T12:00:48.179Z,1.10
2018-12-07T12:01:35.496Z,0.90
2018-12-07T12:03:52.953Z,1.30
2018-12-07T12:05:12.531Z,1.20
2018-12-07T12:05:53.624Z,1.00
2018-12-07T12:06:52.639Z,1.00
2018-12-07T12:07:52.663Z,0.80
2018-12-07T12:08:53.424Z,1.10
2018-12-07T12:10:02.222Z,1.00
2018-12-07T12:11:03.011Z,0.90
2018-12-07T12:12:02.964Z,0.90
2018-12-07T12:12:52.519Z,1.20
2018-12-07T12:14:07.130Z,1.30
2018-12-07T12:15:03.020Z,1.00
2018-12-07T12:16:03.826Z,1.00
2018-12-07T12:16:54.105Z,1.00
2018-12-07T12:17:52.435Z,1.00
2018-12-07T12:18:52.498Z,0.90
2018-12-07T12:19:52.447Z,1.40
2018-12-07T12:21:08.856Z,1.30
2018-12-07T12:21:52.642Z,1.00
2018-12-07T12:24:09.767Z,1.10
2018-12-07T12:25:10.310Z,1.00
2018-12-07T12:26:09.580Z,0.90
2018-12-07T12:27:09.533Z,1.00
2018-12-07T12:28:09.539Z,1.20
2018-12-07T12:29:09.573Z,0.90
2018-12-07T12:30:09.536Z,0.90
2018-12-07T12:33:37.090Z,1.00
2018-12-07T12:34:36.218Z,0.90
2018-12-07T12:35:37.212Z,1.10
2018-12-07T12:36:36.745Z,0.80
2018-12-07T12:37:45.711Z,0.90
2018-12-07T12:38:36.177Z,0.80
2018-12-07T12:39:36.153Z,0.80
2018-12-07T12:40:36.084Z,0.80
2018-12-07T12:41:37.081Z,1.00
2018-12-07T12:42:36.565Z,0.90
2018-12-07T12:43:36.028Z,0.80
2018-12-07T12:44:36.008Z,0.90
2018-12-07T12:45:36.002Z,1.00
2018-12-07T12:46:36.061Z,0.90
2018-12-07T12:47:36.040Z,0.90
2018-12-07T12:48:37.076Z,1.30
2018-12-07T12:49:36.535Z,0.90
2018-12-07T12:50:36.939Z,0.80
2018-12-07T12:51:35.949Z,0.70
2018-12-07T12:52:35.922Z,0.90
2018-12-07T12:53:35.931Z,0.70
2018-12-07T12:54:48.311Z,0.90
2018-12-07T12:55:49.950Z,0.90
2018-12-07T12:56:35.897Z,1.40
2018-12-07T12:57:50.802Z,2.40
2018-12-07T12:58:36.017Z,1.20
2018-12-07T12:59:35.882Z,1.20
2018-12-07T13:00:49.554Z,0.90
2018-12-07T13:01:35.872Z,1.00
2018-12-07T13:02:45.702Z,0.70
2018-12-07T13:03:46.683Z,1.00
2018-12-07T13:04:46.892Z,1.10
2018-12-07T13:05:46.805Z,1.20
2018-12-07T13:06:35.872Z,0.70
2018-12-07T13:07:35.818Z,1.00
2018-12-07T13:08:36.896Z,0.90
2018-12-07T13:09:50.651Z,0.90
2018-12-07T13:10:35.905Z,1.00
2018-12-07T13:11:47.417Z,0.80
2018-12-07T13:12:47.714Z,1.10
2018-12-07T13:13:35.703Z,0.70
2018-12-07T13:14:45.980Z,0.70
2018-12-07T13:15:46.446Z,0.70
2018-12-07T13:16:45.662Z,1.00
2018-12-07T13:17:45.536Z,0.80
2018-12-07T13:18:37.618Z,1.00
2018-12-07T13:19:45.769Z,0.90
2018-12-07T13:21:55.885Z,2.40
2018-12-07T13:24:24.806Z,2.00
2018-12-07T13:25:33.584Z,1.50
2018-12-07T13:26:38.640Z,1.50
2018-12-07T13:28:35.033Z,1.20
2018-12-07T13:29:34.934Z,1.50
2018-12-07T13:30:34.810Z,1.30
2018-12-07T13:31:34.827Z,1.40
2018-12-07T13:32:34.803Z,1.30
2018-12-07T13:33:34.770Z,0.80
2018-12-07T13:34:34.800Z,1.00
2018-12-07T13:35:34.769Z,1.00
2018-12-07T13:36:34.794Z,1.00
2018-12-07T13:37:34.723Z,1.00
2018-12-07T13:38:34.777Z,1.10
2018-12-07T13:39:34.769Z,1.20
2018-12-07T13:40:34.762Z,1.10
2018-12-07T13:41:34.773Z,1.10
2018-12-07T13:42:34.883Z,0.80
2018-12-07T13:43:34.745Z,1.10
2018-12-07T13:44:34.767Z,0.80
2018-12-07T13:45:34.672Z,0.90
2018-12-07T13:46:34.804Z,0.80
2018-12-07T13:47:34.743Z,0.80
2018-12-07T13:48:34.712Z,0.70
2018-12-07T13:49:34.806Z,0.80
2018-12-07T13:50:34.583Z,0.80
2018-12-07T13:51:35.663Z,0.80
2018-12-07T13:52:34.606Z,0.80
2018-12-07T13:53:34.670Z,0.80
2018-12-07T13:54:34.542Z,0.80
2018-12-07T13:55:34.537Z,1.10
2018-12-07T13:56:34.620Z,0.90
2018-12-07T13:57:34.487Z,0.80
2018-12-07T13:58:34.579Z,1.00
2018-12-07T13:59:35.939Z,1.10
2018-12-07T14:00:34.545Z,1.20
2018-12-07T14:01:34.596Z,1.30
2018-12-07T14:02:35.892Z,1.40
2018-12-07T14:03:34.415Z,1.20
2018-12-07T14:04:34.531Z,1.80
2018-12-07T14:05:34.470Z,1.10
2018-12-07T14:06:34.457Z,1.20
2018-12-07T14:07:34.556Z,1.10
2018-12-07T14:08:34.404Z,1.00
2018-12-07T14:09:34.584Z,1.40
2018-12-07T14:10:34.398Z,1.10
2018-12-07T14:11:34.344Z,1.50
2018-12-07T14:12:34.514Z,1.50
2018-12-07T14:13:34.390Z,1.10
2018-12-07T14:14:34.309Z,1.60
2018-12-07T14:15:34.355Z,2.00
2018-12-07T14:16:34.460Z,1.10
2018-12-07T14:17:34.258Z,1.60
2018-12-07T14:18:34.433Z,1.10
2018-12-07T14:19:34.255Z,0.90
2018-12-07T14:20:34.371Z,0.80
2018-12-07T14:21:34.241Z,0.90
2018-12-07T14:22:34.443Z,0.80
2018-12-07T14:23:35.844Z,0.80
2018-12-07T14:24:34.205Z,0.90
2018-12-07T14:25:34.186Z,0.90
2018-12-07T14:26:34.255Z,1.00
2018-12-07T14:27:34.164Z,0.90
2018-12-07T14:28:34.356Z,0.60
2018-12-07T14:29:34.258Z,0.80
2018-12-07T14:30:34.151Z,0.80
2018-12-07T14:31:34.167Z,0.80
2018-12-07T14:32:34.224Z,0.80
2018-12-07T14:33:34.187Z,0.90
2018-12-07T14:34:34.100Z,0.70
2018-12-07T14:35:34.301Z,0.80
2018-12-07T14:36:34.063Z,0.90
2018-12-07T14:37:34.071Z,0.80
2018-12-07T14:38:34.062Z,0.70
2018-12-07T14:39:34.204Z,2.20
2018-12-07T14:40:34.643Z,1.40
2018-12-07T14:41:45.849Z,0.80
2018-12-07T14:42:34.178Z,0.90
2018-12-07T14:43:45.879Z,0.80
2018-12-07T14:44:34.109Z,0.80
2018-12-07T14:45:44.475Z,0.80
2018-12-07T14:46:34.191Z,2.50
2018-12-07T14:47:33.931Z,1.30
2018-12-07T14:48:34.185Z,1.20
2018-12-07T14:49:34.686Z,1.40
2018-12-07T14:50:35.163Z,1.10
2018-12-07T14:51:34.695Z,0.90
2018-12-07T14:52:33.885Z,0.70
2018-12-07T14:53:34.068Z,1.40
2018-12-07T14:54:33.971Z,0.80
2018-12-07T14:55:33.958Z,0.80
2018-12-07T14:56:34.738Z,1.00
2018-12-07T14:57:34.036Z,0.90
2018-12-07T14:58:33.802Z,1.10
2018-12-07T14:59:33.845Z,1.00
2018-12-07T15:00:33.855Z,0.80
2018-12-07T15:01:33.979Z,1.60
2018-12-07T15:02:33.747Z,1.90
2018-12-07T15:03:33.738Z,1.40
2018-12-07T15:04:33.750Z,1.80
2018-12-07T15:05:34.029Z,1.40
2018-12-07T15:06:45.363Z,1.80
2018-12-07T15:07:33.818Z,1.30
2018-12-07T15:08:33.695Z,6.50
2018-12-07T15:09:35.818Z,2.50
2018-12-07T15:10:33.830Z,1.00
2018-12-07T15:11:33.879Z,1.00
2018-12-07T15:12:33.928Z,1.00
2018-12-07T15:13:33.698Z,1.30
2018-12-07T15:14:33.723Z,1.00
2018-12-07T15:15:33.724Z,1.00
2018-12-07T15:16:33.824Z,1.00
2018-12-07T15:17:44.149Z,0.80
2018-12-07T15:18:45.539Z,0.90
2018-12-07T15:19:43.859Z,1.90
2018-12-07T15:20:33.638Z,1.00
2018-12-07T15:21:33.642Z,1.20
2018-12-07T15:22:33.597Z,1.20
2018-12-07T15:23:33.628Z,1.10
2018-12-07T15:24:33.601Z,0.90
2018-12-07T15:25:33.509Z,1.00
2018-12-07T15:26:33.535Z,0.90
2018-12-07T15:27:34.563Z,1.00
2018-12-07T15:28:33.622Z,1.00
2018-12-07T15:29:34.311Z,1.90
2018-12-07T15:30:33.436Z,0.90
2018-12-07T15:31:42.073Z,1.50
2018-12-07T15:32:33.664Z,3.20
2018-12-07T15:33:33.510Z,1.50
2018-12-07T15:34:33.455Z,1.30
2018-12-07T15:35:33.531Z,1.50
2018-12-07T15:36:33.585Z,1.00
2018-12-07T15:37:33.467Z,1.00
2018-12-07T15:38:33.475Z,1.10
2018-12-07T15:39:33.483Z,1.10
2018-12-07T15:40:33.512Z,1.20
2018-12-07T15:41:33.409Z,1.00
2018-12-07T15:42:33.378Z,1.40
2018-12-07T15:43:33.375Z,1.60
2018-12-07T15:44:33.424Z,1.90
2018-12-07T15:45:33.357Z,0.80
2018-12-07T15:46:33.295Z,1.30
2018-12-07T15:47:33.333Z,1.20
2018-12-07T15:48:33.262Z,0.90
2018-12-07T15:49:33.683Z,1.00
2018-12-07T15:50:33.263Z,1.00
2018-12-07T15:51:33.229Z,2.80
2018-12-07T15:52:33.261Z,1.20
2018-12-07T15:53:33.254Z,2.00
2018-12-07T15:54:33.242Z,1.40
2018-12-07T15:55:33.441Z,1.70
2018-12-07T15:56:33.446Z,0.90
2018-12-07T15:57:45.042Z,1.80
2018-12-07T15:58:43.097Z,1.50
2018-12-07T15:59:34.707Z,2.10
2018-12-07T16:00:33.269Z,1.80
2018-12-07T16:01:44.229Z,4.40
2018-12-07T16:02:33.315Z,2.60
2018-12-07T16:03:43.797Z,1.70
2018-12-07T16:04:33.271Z,2.00
2018-12-07T16:05:33.139Z,2.50
2018-12-07T16:06:33.434Z,1.70
2018-12-07T16:07:34.244Z,2.00
2018-12-07T16:08:33.307Z,1.60
2018-12-07T16:09:33.190Z,1.70
2018-12-07T16:10:33.182Z,1.50
2018-12-07T16:11:33.067Z,1.90
2018-12-07T16:12:33.027Z,1.50
2018-12-07T16:13:32.997Z,1.80
2018-12-07T16:14:33.031Z,1.60
2018-12-07T16:15:32.962Z,2.30
2018-12-07T16:16:33.080Z,1.60
2018-12-07T16:17:34.032Z,1.60
2018-12-07T16:19:01.419Z,1.70
2018-12-07T16:19:33.053Z,2.20
2018-12-07T16:20:32.866Z,1.90
2018-12-07T16:21:32.949Z,2.30
2018-12-07T16:22:33.087Z,2.70
2018-12-07T16:23:32.830Z,2.80
2018-12-07T16:24:32.971Z,1.60
2018-12-07T16:25:42.773Z,2.00
2018-12-07T16:26:32.959Z,2.70
2018-12-07T16:27:32.907Z,1.70
2018-12-07T16:28:32.852Z,1.70
2018-12-07T16:29:32.858Z,1.70
2018-12-07T16:30:32.980Z,1.60
2018-12-07T16:31:42.777Z,1.60
2018-12-07T16:32:43.723Z,1.40
2018-12-07T16:33:47.939Z,1.40
2018-12-07T16:34:32.821Z,1.30
2018-12-07T16:35:42.828Z,1.50
2018-12-07T16:36:32.841Z,1.40
2018-12-07T16:37:32.766Z,1.40
2018-12-07T16:38:32.905Z,1.10
2018-12-07T16:39:32.823Z,1.40
2018-12-07T16:40:32.680Z,1.10
2018-12-07T16:41:41.301Z,1.30
2018-12-07T16:42:47.807Z,0.90
2018-12-07T16:43:43.937Z,1.00
2018-12-07T16:44:42.295Z,1.20
2018-12-07T16:45:41.305Z,1.20
2018-12-07T16:46:32.875Z,1.10
2018-12-07T16:47:32.591Z,1.10
2018-12-07T16:48:53.651Z,1.10
2018-12-07T16:49:32.759Z,1.00
2018-12-07T16:50:32.556Z,1.30
2018-12-07T16:51:42.224Z,1.60
2018-12-07T16:52:32.645Z,1.50
2018-12-07T16:53:44.056Z,1.20
2018-12-07T16:54:32.574Z,1.40
2018-12-07T16:55:32.624Z,1.20
2018-12-07T16:56:32.502Z,1.20
2018-12-07T16:57:32.664Z,1.30
2018-12-07T16:58:32.716Z,1.30
2018-12-07T16:59:32.579Z,1.30
2018-12-07T17:00:32.404Z,1.10
2018-12-07T17:01:32.616Z,1.10
2018-12-07T17:02:32.585Z,1.30
2018-12-07T17:03:32.380Z,1.00
2018-12-07T17:04:32.417Z,1.10
2018-12-07T17:05:32.378Z,0.90
2018-12-07T17:06:32.407Z,1.10
2018-12-07T17:07:32.462Z,2.80
2018-12-07T17:08:32.458Z,1.10
2018-12-07T17:09:32.321Z,1.10
2018-12-07T17:10:32.498Z,1.20
2018-12-07T17:11:32.308Z,1.20
2018-12-07T17:12:32.591Z,1.20
2018-12-07T17:13:32.385Z,1.10
2018-12-07T17:14:32.376Z,1.10
2018-12-07T17:15:32.378Z,2.40
2018-12-07T17:16:32.448Z,1.90
2018-12-07T17:17:32.331Z,1.80
2018-12-07T17:18:32.336Z,1.40
2018-12-07T17:19:32.266Z,1.50
2018-12-07T17:20:32.176Z,1.70
2018-12-07T17:21:32.269Z,1.50
2018-12-07T17:22:32.239Z,1.80
2018-12-07T17:23:32.241Z,1.40
2018-12-07T17:24:32.199Z,1.40
2018-12-07T17:25:32.831Z,1.50
2018-12-07T17:26:32.418Z,1.50
2018-12-07T17:27:32.281Z,1.30
2018-12-07T17:28:32.108Z,1.50
2018-12-07T17:29:32.181Z,1.50
2018-12-07T17:30:44.804Z,1.50
2018-12-07T17:31:33.017Z,1.50
2018-12-07T17:32:32.195Z,1.30
2018-12-07T17:33:32.194Z,1.40
2018-12-07T17:34:33.155Z,1.70
2018-12-07T17:35:32.302Z,1.30
2018-12-07T17:36:32.116Z,1.60
2018-12-07T17:37:32.433Z,1.40
2018-12-07T17:38:33.065Z,1.40
2018-12-07T17:39:31.977Z,1.50
2018-12-07T17:40:31.978Z,1.50
2018-12-07T17:41:31.942Z,1.70
2018-12-07T17:42:32.112Z,1.60
2018-12-07T17:43:32.031Z,1.40
2018-12-07T17:44:32.935Z,1.50
2018-12-07T17:45:33.038Z,1.60
2018-12-07T17:46:32.151Z,1.40
2018-12-07T17:47:32.132Z,1.50
2018-12-07T17:48:33.161Z,1.30
2018-12-07T17:49:31.924Z,1.40
2018-12-07T17:50:31.927Z,1.20
2018-12-07T17:51:32.058Z,1.30
2018-12-07T17:52:31.848Z,1.10
2018-12-07T17:53:32.064Z,1.10
2018-12-07T17:54:31.822Z,1.00
2018-12-07T17:55:32.042Z,1.10
2018-12-07T17:56:31.853Z,1.00
2018-12-07T17:57:31.751Z,1.10
2018-12-07T17:58:31.951Z,1.10
2018-12-07T17:59:31.739Z,1.10
2018-12-07T18:00:31.735Z,1.00
2018-12-07T18:01:31.734Z,1.10
2018-12-07T18:02:31.703Z,1.30
2018-12-07T18:03:31.692Z,1.00
2018-12-07T18:05:40.762Z,1.20
2018-12-07T18:06:41.731Z,1.00
2018-12-07T18:07:40.778Z,1.10
2018-12-07T18:08:40.595Z,0.90
2018-12-07T18:09:40.704Z,0.90
2018-12-07T18:10:40.713Z,1.10
2018-12-07T18:11:41.555Z,0.80
2018-12-07T18:12:40.579Z,0.90
2018-12-07T18:13:49.342Z,0.80
2018-12-07T18:14:40.513Z,1.00
2018-12-07T18:15:40.653Z,0.80
2018-12-07T18:16:41.498Z,0.80
2018-12-07T18:17:40.509Z,0.90
2018-12-07T18:18:40.400Z,0.70
2018-12-07T18:19:40.462Z,0.90
2018-12-07T18:20:40.352Z,1.00
2018-12-07T18:21:40.417Z,1.00
2018-12-07T18:22:40.330Z,0.80
2018-12-07T18:23:40.347Z,0.80
2018-12-07T18:24:40.878Z,1.00
2018-12-07T18:25:40.566Z,0.90
2018-12-07T18:26:40.338Z,0.90
2018-12-07T18:27:40.552Z,0.80
2018-12-07T18:28:40.408Z,0.90
2018-12-07T18:29:40.503Z,0.90
2018-12-07T18:30:41.233Z,0.80
2018-12-07T18:31:40.262Z,0.80
2018-12-07T18:32:40.456Z,0.90
2018-12-07T18:33:40.273Z,0.90
2018-12-07T18:34:40.421Z,0.60
2018-12-07T18:35:41.306Z,0.70
2018-12-07T18:36:40.399Z,0.80
2018-12-07T18:37:40.168Z,0.70
2018-12-07T18:38:40.526Z,0.70
2018-12-07T18:39:40.244Z,0.80
2018-12-07T18:40:40.924Z,0.70
2018-12-07T18:41:40.230Z,0.70
2018-12-07T18:42:40.384Z,0.80
2018-12-07T18:43:40.201Z,0.80
2018-12-07T18:44:40.129Z,1.00
2018-12-07T18:45:40.222Z,0.80
2018-12-07T18:46:40.232Z,0.80
2018-12-07T18:47:40.309Z,0.90
2018-12-07T18:48:40.052Z,0.80
2018-12-07T18:49:40.027Z,0.90
2018-12-07T18:50:40.275Z,0.90
2018-12-07T18:51:40.027Z,0.90
2018-12-07T18:52:40.183Z,0.80
2018-12-07T18:53:40.041Z,0.90
2018-12-07T18:54:40.025Z,0.80
2018-12-07T18:55:40.096Z,0.90
2018-12-07T18:56:40.100Z,1.00
2018-12-07T18:57:40.200Z,0.90
2018-12-07T18:58:39.954Z,1.00
2018-12-07T18:59:40.080Z,1.10
2018-12-07T19:00:39.922Z,0.90
2018-12-07T19:01:40.006Z,1.10
2018-12-07T19:02:39.931Z,1.00
2018-12-07T19:03:39.918Z,1.10
2018-12-07T19:04:40.182Z,0.90
2018-12-07T19:05:40.150Z,1.00
2018-12-07T19:06:39.924Z,0.90
2018-12-07T19:07:39.831Z,1.00
2018-12-07T19:08:39.864Z,1.00
2018-12-07T19:09:39.972Z,1.00
2018-12-07T19:10:39.906Z,1.00
2018-12-07T19:11:40.041Z,1.20
2018-12-07T19:12:40.373Z,2.30
2018-12-07T19:13:39.964Z,1.50
2018-12-07T19:14:39.793Z,1.00
2018-12-07T19:15:39.734Z,3.00
2018-12-07T19:16:39.933Z,1.20
2018-12-07T19:17:39.792Z,1.20
2018-12-07T19:18:39.802Z,1.10
2018-12-07T19:19:39.853Z,1.40
2018-12-07T19:20:39.861Z,1.10
2018-12-07T19:21:40.526Z,1.10
2018-12-07T19:22:39.934Z,1.10
2018-12-07T19:23:39.738Z,1.10
2018-12-07T19:24:39.704Z,1.10
2018-12-07T19:25:39.943Z,1.20
2018-12-07T19:26:39.814Z,1.10
2018-12-07T19:27:39.625Z,1.10
2018-12-07T19:28:39.845Z,1.10
2018-12-07T19:29:39.607Z,1.20
2018-12-07T19:30:39.762Z,1.00
2018-12-07T19:31:39.656Z,1.20
2018-12-07T19:32:39.542Z,1.20
2018-12-07T19:33:39.529Z,1.40
2018-12-07T19:35:00.593Z,1.30
2018-12-07T19:35:39.546Z,1.10
2018-12-07T19:36:39.807Z,1.20
2018-12-07T19:37:39.557Z,1.20
2018-12-07T19:38:40.449Z,1.40
2018-12-07T19:39:39.491Z,1.20
2018-12-07T19:40:39.517Z,1.50
2018-12-07T19:41:39.513Z,1.40
2018-12-07T19:42:39.489Z,1.20
2018-12-07T19:43:39.424Z,1.30
2018-12-07T19:44:39.405Z,1.50
2018-12-07T19:45:39.491Z,1.40
2018-12-07T19:46:39.442Z,1.50
2018-12-07T19:47:39.429Z,1.40
2018-12-07T19:48:39.447Z,1.40
2018-12-07T19:49:39.936Z,1.40
2018-12-07T19:50:39.524Z,1.40
2018-12-07T19:51:39.375Z,1.40
2018-12-07T19:52:39.393Z,1.40
2018-12-07T19:53:39.346Z,1.60
2018-12-07T19:54:39.355Z,1.60
2018-12-07T19:55:39.275Z,1.50
2018-12-07T19:56:39.273Z,1.50
2018-12-07T19:57:39.400Z,1.60
2018-12-07T19:58:39.342Z,1.50
2018-12-07T19:59:39.330Z,1.40
2018-12-07T20:00:39.227Z,1.40
2018-12-07T20:01:39.410Z,1.50
2018-12-07T20:02:39.206Z,1.40
2018-12-07T20:03:39.483Z,1.30
2018-12-07T20:04:39.522Z,1.40
2018-12-07T20:05:39.347Z,1.50
2018-12-07T20:06:41.022Z,1.40
2018-12-07T20:07:39.178Z,1.40
2018-12-07T20:08:39.165Z,1.40
2018-12-07T20:09:39.120Z,1.10
2018-12-07T20:10:39.144Z,1.20
2018-12-07T20:11:39.474Z,1.30
2018-12-07T20:12:39.966Z,1.40
2018-12-07T20:13:39.072Z,1.30
2018-12-07T20:14:39.162Z,1.30
2018-12-07T20:15:39.070Z,1.40
2018-12-07T20:16:39.083Z,1.40
2018-12-07T20:17:39.085Z,1.10